Airfield :







YOU CAN JOIN US ON...

 
LOGIN :

Register | Disclaimer

   EN    FR    IT 

 









Legend :    VFR   Marginal VFR   IFR   Intensive IFR   Very Intensive IFR
Visi :
Ceiling :
>= 8 km
>= 3000ft
5 to 8 km
1000 to 3000 ft
1500m to 5 km
500 to 1000 ft
800 to 1500m
200 to 500 ft
< 800m
< 200 ft
Symbols :   Thunderstorms  Fog  Heavy snow  Heavy precipitations  Wind > 20 kt






- Airport Elevation : 54 ft
- IATA code : BEL


SBBE - Val de Cans Int.

CURRENT METAR :
  • 020200Z 07005KT CAVOK 26/24 Q1010

EXPIRED METARs :
  • 020100Z 04007KT CAVOK 26/23 Q1009
  • 020000Z 04007KT CAVOK 26/24 Q1009

TAF TAF SBBE
Valid from the 02 at 00:00 until the 03 at 00:00 UTC


011710Z 0200/0224 03005KT 8000 FEW030 TN24/0209Z TX31/0217Z
BECMG 0206/0208 08005KT
BECMG 0212/0214 36006KT SCT025
BECMG 0215/0218 34010KT BKN025 FEW035TCU
TEMPO 0218/0222 4000 TSRA SCT030 FEW035CB
BECMG 0222/0224 03005KT FEW030 RMK PHN
SBAZ FIR / South America



MET'MAP, your aeronautical weather chart ! - Copyright ORBIFLY December 2007 - Disclaimer

ORBIFLY MET'MAP TEAM :

Programming & Development : Alexandra Zaïnal
Original concept : Baudouin d'Aumeries
Technical & hardware support : Manuel Goepfert
Assistance : Marc-Olivier Méhu




SOURCES & CREDITS :

   NOAA